sensor_id;sensor_type;location;lat;lon;timestamp;temperature;humidity
23869;DHT22;12115;47.128;15.422;2024-03-08T00:00:12;5.40;99.90
23869;DHT22;12115;47.128;15.422;2024-03-08T00:02:42;5.40;99.90
23869;DHT22;12115;47.128;15.422;2024-03-08T00:05:10;5.40;99.90
23869;DHT22;12115;47.128;15.422;2024-03-08T00:07:38;5.40;99.90
23869;DHT22;12115;47.128;15.422;2024-03-08T00:10:07;5.40;99.90
23869;DHT22;12115;47.128;15.422;2024-03-08T00:12:39;5.30;99.90
23869;DHT22;12115;47.128;15.422;2024-03-08T00:15:17;5.30;99.90
23869;DHT22;12115;47.128;15.422;2024-03-08T00:17:46;5.30;99.90
23869;DHT22;12115;47.128;15.422;2024-03-08T00:20:15;5.30;99.90
23869;DHT22;12115;47.128;15.422;2024-03-08T00:22:46;5.30;99.90
23869;DHT22;12115;47.128;15.422;2024-03-08T00:25:13;5.30;99.90
23869;DHT22;12115;47.128;15.422;2024-03-08T00:27:41;5.30;99.90
23869;DHT22;12115;47.128;15.422;2024-03-08T00:30:11;5.20;99.90
23869;DHT22;12115;47.128;15.422;2024-03-08T00:32:40;5.20;99.90
23869;DHT22;12115;47.128;15.422;2024-03-08T00:35:08;5.10;99.90
23869;DHT22;12115;47.128;15.422;2024-03-08T00:37:35;5.10;99.90
23869;DHT22;12115;47.128;15.422;2024-03-08T00:40:03;5.20;99.90
23869;DHT22;12115;47.128;15.422;2024-03-08T00:42:31;5.10;99.90
23869;DHT22;12115;47.128;15.422;2024-03-08T00:44:58;5.20;99.90
23869;DHT22;12115;47.128;15.422;2024-03-08T00:47:25;5.10;99.90
23869;DHT22;12115;47.128;15.422;2024-03-08T00:49:54;5.10;99.90
23869;DHT22;12115;47.128;15.422;2024-03-08T00:52:23;5.10;99.90
23869;DHT22;12115;47.128;15.422;2024-03-08T00:54:51;5.10;99.90
23869;DHT22;12115;47.128;15.422;2024-03-08T00:57:18;5.10;99.90
23869;DHT22;12115;47.128;15.422;2024-03-08T00:59:46;5.10;99.90
23869;DHT22;12115;47.128;15.422;2024-03-08T01:02:14;5.10;99.90
23869;DHT22;12115;47.128;15.422;2024-03-08T01:04:41;5.10;99.90
23869;DHT22;12115;47.128;15.422;2024-03-08T01:07:08;5.00;99.90
23869;DHT22;12115;47.128;15.422;2024-03-08T01:09:35;5.00;99.90
23869;DHT22;12115;47.128;15.422;2024-03-08T01:12:02;5.00;99.90
23869;DHT22;12115;47.128;15.422;2024-03-08T01:14:30;5.00;99.90
23869;DHT22;12115;47.128;15.422;2024-03-08T01:16:58;4.90;99.90
23869;DHT22;12115;47.128;15.422;2024-03-08T01:19:25;5.00;99.90
23869;DHT22;12115;47.128;15.422;2024-03-08T01:21:52;5.00;99.90
23869;DHT22;12115;47.128;15.422;2024-03-08T01:24:22;5.00;99.90
23869;DHT22;12115;47.128;15.422;2024-03-08T01:26:49;4.90;99.90
23869;DHT22;12115;47.128;15.422;2024-03-08T01:29:17;4.90;99.90
23869;DHT22;12115;47.128;15.422;2024-03-08T01:31:44;4.80;99.90
23869;DHT22;12115;47.128;15.422;2024-03-08T01:34:11;4.80;99.90
23869;DHT22;12115;47.128;15.422;2024-03-08T01:36:38;4.80;99.90
23869;DHT22;12115;47.128;15.422;2024-03-08T01:39:05;4.70;99.90
23869;DHT22;12115;47.128;15.422;2024-03-08T01:41:37;4.80;99.90
23869;DHT22;12115;47.128;15.422;2024-03-08T01:44:04;4.80;99.90
23869;DHT22;12115;47.128;15.422;2024-03-08T01:46:34;4.70;99.90
23869;DHT22;12115;47.128;15.422;2024-03-08T01:49:02;4.80;99.90
23869;DHT22;12115;47.128;15.422;2024-03-08T01:51:30;4.70;99.90
23869;DHT22;12115;47.128;15.422;2024-03-08T01:54:00;4.60;99.90
23869;DHT22;12115;47.128;15.422;2024-03-08T01:56:29;4.60;99.90
23869;DHT22;12115;47.128;15.422;2024-03-08T01:58:59;4.50;99.90
23869;DHT22;12115;47.128;15.422;2024-03-08T02:01:27;4.50;99.90
23869;DHT22;12115;47.128;15.422;2024-03-08T02:03:55;4.50;99.90
23869;DHT22;12115;47.128;15.422;2024-03-08T02:06:22;4.50;99.90
23869;DHT22;12115;47.128;15.422;2024-03-08T02:08:49;4.50;99.90
23869;DHT22;12115;47.128;15.422;2024-03-08T02:11:16;4.40;99.90
23869;DHT22;12115;47.128;15.422;2024-03-08T02:13:44;4.50;99.90
23869;DHT22;12115;47.128;15.422;2024-03-08T02:16:11;4.40;99.90
23869;DHT22;12115;47.128;15.422;2024-03-08T02:18:38;4.40;99.90
23869;DHT22;12115;47.128;15.422;2024-03-08T02:21:07;4.40;99.90
23869;DHT22;12115;47.128;15.422;2024-03-08T02:23:35;4.40;99.90
23869;DHT22;12115;47.128;15.422;2024-03-08T02:26:04;4.40;99.90
23869;DHT22;12115;47.128;15.422;2024-03-08T02:28:32;4.40;99.90
23869;DHT22;12115;47.128;15.422;2024-03-08T02:30:59;4.40;99.90
23869;DHT22;12115;47.128;15.422;2024-03-08T02:33:28;4.40;99.90
23869;DHT22;12115;47.128;15.422;2024-03-08T02:35:57;4.40;99.90
23869;DHT22;12115;47.128;15.422;2024-03-08T02:38:24;4.40;99.90
23869;DHT22;12115;47.128;15.422;2024-03-08T02:40:53;4.40;99.90
23869;DHT22;12115;47.128;15.422;2024-03-08T02:43:22;4.40;99.90
23869;DHT22;12115;47.128;15.422;2024-03-08T02:45:50;4.40;99.90
23869;DHT22;12115;47.128;15.422;2024-03-08T02:48:17;4.30;99.90
23869;DHT22;12115;47.128;15.422;2024-03-08T02:50:45;4.30;99.90
23869;DHT22;12115;47.128;15.422;2024-03-08T02:53:13;4.30;99.90
23869;DHT22;12115;47.128;15.422;2024-03-08T02:55:41;4.30;99.90
23869;DHT22;12115;47.128;15.422;2024-03-08T02:58:09;4.30;99.90
23869;DHT22;12115;47.128;15.422;2024-03-08T03:00:40;4.30;99.90
23869;DHT22;12115;47.128;15.422;2024-03-08T03:03:07;4.30;99.90
23869;DHT22;12115;47.128;15.422;2024-03-08T03:05:35;4.30;99.90
23869;DHT22;12115;47.128;15.422;2024-03-08T03:08:02;4.40;99.90
23869;DHT22;12115;47.128;15.422;2024-03-08T03:10:37;4.40;99.90
23869;DHT22;12115;47.128;15.422;2024-03-08T03:13:06;4.40;99.90
23869;DHT22;12115;47.128;15.422;2024-03-08T03:15:35;4.30;99.90
23869;DHT22;12115;47.128;15.422;2024-03-08T03:18:04;4.30;99.90
23869;DHT22;12115;47.128;15.422;2024-03-08T03:20:35;4.30;99.90
23869;DHT22;12115;47.128;15.422;2024-03-08T03:23:11;4.30;99.90
23869;DHT22;12115;47.128;15.422;2024-03-08T03:25:42;4.20;99.90
23869;DHT22;12115;47.128;15.422;2024-03-08T03:28:10;4.20;99.90
23869;DHT22;12115;47.128;15.422;2024-03-08T03:30:42;4.10;99.90
23869;DHT22;12115;47.128;15.422;2024-03-08T03:33:09;4.20;99.90
23869;DHT22;12115;47.128;15.422;2024-03-08T03:35:37;4.10;99.90
23869;DHT22;12115;47.128;15.422;2024-03-08T03:38:05;4.10;99.90
23869;DHT22;12115;47.128;15.422;2024-03-08T03:40:38;4.10;99.90
23869;DHT22;12115;47.128;15.422;2024-03-08T03:43:06;4.10;99.90
23869;DHT22;12115;47.128;15.422;2024-03-08T03:45:33;4.20;99.90
23869;DHT22;12115;47.128;15.422;2024-03-08T03:48:05;4.30;99.90
23869;DHT22;12115;47.128;15.422;2024-03-08T03:50:39;4.30;99.90
23869;DHT22;12115;47.128;15.422;2024-03-08T03:53:07;4.30;99.90
23869;DHT22;12115;47.128;15.422;2024-03-08T03:55:37;4.20;99.90
23869;DHT22;12115;47.128;15.422;2024-03-08T03:58:07;4.20;99.90
23869;DHT22;12115;47.128;15.422;2024-03-08T04:00:34;4.20;99.90
23869;DHT22;12115;47.128;15.422;2024-03-08T04:03:01;4.20;99.90
23869;DHT22;12115;47.128;15.422;2024-03-08T04:05:28;4.20;99.90
23869;DHT22;12115;47.128;15.422;2024-03-08T04:07:56;4.20;99.90
23869;DHT22;12115;47.128;15.422;2024-03-08T04:10:24;4.20;99.90
23869;DHT22;12115;47.128;15.422;2024-03-08T04:12:51;4.30;99.90
23869;DHT22;12115;47.128;15.422;2024-03-08T04:15:19;4.30;99.90
23869;DHT22;12115;47.128;15.422;2024-03-08T04:17:47;4.30;99.90
23869;DHT22;12115;47.128;15.422;2024-03-08T04:20:15;4.30;99.90
23869;DHT22;12115;47.128;15.422;2024-03-08T04:22:42;4.40;99.90
23869;DHT22;12115;47.128;15.422;2024-03-08T04:25:11;4.40;99.90
23869;DHT22;12115;47.128;15.422;2024-03-08T04:27:38;4.30;99.90
23869;DHT22;12115;47.128;15.422;2024-03-08T04:30:06;4.30;99.90
23869;DHT22;12115;47.128;15.422;2024-03-08T04:32:36;4.30;99.90
23869;DHT22;12115;47.128;15.422;2024-03-08T04:35:05;4.30;99.90
23869;DHT22;12115;47.128;15.422;2024-03-08T04:37:32;4.30;99.90
23869;DHT22;12115;47.128;15.422;2024-03-08T04:39:59;4.30;99.90
23869;DHT22;12115;47.128;15.422;2024-03-08T04:42:30;4.30;99.90
23869;DHT22;12115;47.128;15.422;2024-03-08T04:44:59;4.30;99.90
23869;DHT22;12115;47.128;15.422;2024-03-08T04:47:27;4.30;99.90
23869;DHT22;12115;47.128;15.422;2024-03-08T04:49:54;4.30;99.90
23869;DHT22;12115;47.128;15.422;2024-03-08T04:52:23;4.30;99.90
23869;DHT22;12115;47.128;15.422;2024-03-08T04:54:50;4.20;99.90
23869;DHT22;12115;47.128;15.422;2024-03-08T04:57:17;4.30;99.90
23869;DHT22;12115;47.128;15.422;2024-03-08T04:59:46;4.30;99.90
23869;DHT22;12115;47.128;15.422;2024-03-08T05:02:13;4.20;99.90
23869;DHT22;12115;47.128;15.422;2024-03-08T05:04:40;4.20;99.90
23869;DHT22;12115;47.128;15.422;2024-03-08T05:07:09;4.20;99.90
23869;DHT22;12115;47.128;15.422;2024-03-08T05:09:36;4.20;99.90
23869;DHT22;12115;47.128;15.422;2024-03-08T05:12:05;4.20;99.90
23869;DHT22;12115;47.128;15.422;2024-03-08T05:14:32;4.20;99.90
23869;DHT22;12115;47.128;15.422;2024-03-08T05:17:01;4.10;99.90
23869;DHT22;12115;47.128;15.422;2024-03-08T05:19:28;4.10;99.90
23869;DHT22;12115;47.128;15.422;2024-03-08T05:22:00;4.10;99.90
23869;DHT22;12115;47.128;15.422;2024-03-08T05:24:28;4.10;99.90
23869;DHT22;12115;47.128;15.422;2024-03-08T05:26:57;4.20;99.90
23869;DHT22;12115;47.128;15.422;2024-03-08T05:29:24;4.10;99.90
23869;DHT22;12115;47.128;15.422;2024-03-08T05:31:51;4.10;99.90
23869;DHT22;12115;47.128;15.422;2024-03-08T05:34:20;4.00;99.90
23869;DHT22;12115;47.128;15.422;2024-03-08T05:36:48;4.00;99.90
23869;DHT22;12115;47.128;15.422;2024-03-08T05:39:18;4.00;99.90
23869;DHT22;12115;47.128;15.422;2024-03-08T05:41:47;4.00;99.90
23869;DHT22;12115;47.128;15.422;2024-03-08T05:44:15;4.00;99.90
23869;DHT22;12115;47.128;15.422;2024-03-08T05:46:44;4.00;99.90
23869;DHT22;12115;47.128;15.422;2024-03-08T05:49:13;4.00;99.90
23869;DHT22;12115;47.128;15.422;2024-03-08T05:51:41;3.90;99.90
23869;DHT22;12115;47.128;15.422;2024-03-08T05:54:10;3.90;99.90
23869;DHT22;12115;47.128;15.422;2024-03-08T05:56:41;3.90;99.90
23869;DHT22;12115;47.128;15.422;2024-03-08T05:59:12;3.90;99.90
23869;DHT22;12115;47.128;15.422;2024-03-08T06:01:40;3.90;99.90
23869;DHT22;12115;47.128;15.422;2024-03-08T06:04:09;4.00;99.90
23869;DHT22;12115;47.128;15.422;2024-03-08T06:06:41;4.00;99.90
23869;DHT22;12115;47.128;15.422;2024-03-08T06:09:08;4.10;99.90
23869;DHT22;12115;47.128;15.422;2024-03-08T06:11:41;4.10;99.90
23869;DHT22;12115;47.128;15.422;2024-03-08T06:14:09;4.10;99.90
23869;DHT22;12115;47.128;15.422;2024-03-08T06:16:36;4.10;99.90
23869;DHT22;12115;47.128;15.422;2024-03-08T06:19:05;4.10;99.90
23869;DHT22;12115;47.128;15.422;2024-03-08T06:21:32;4.10;99.90
23869;DHT22;12115;47.128;15.422;2024-03-08T06:24:00;4.20;99.90
23869;DHT22;12115;47.128;15.422;2024-03-08T06:26:27;4.20;99.90
23869;DHT22;12115;47.128;15.422;2024-03-08T06:28:59;4.20;99.90
23869;DHT22;12115;47.128;15.422;2024-03-08T06:31:26;4.10;99.90
23869;DHT22;12115;47.128;15.422;2024-03-08T06:33:53;4.20;99.90
23869;DHT22;12115;47.128;15.422;2024-03-08T06:36:23;4.20;99.90
23869;DHT22;12115;47.128;15.422;2024-03-08T06:38:51;4.20;99.90
23869;DHT22;12115;47.128;15.422;2024-03-08T06:41:19;4.20;99.90
23869;DHT22;12115;47.128;15.422;2024-03-08T06:43:47;4.20;99.90
23869;DHT22;12115;47.128;15.422;2024-03-08T06:46:15;4.20;99.90
23869;DHT22;12115;47.128;15.422;2024-03-08T06:48:43;4.10;99.90
23869;DHT22;12115;47.128;15.422;2024-03-08T06:51:10;4.00;99.90
23869;DHT22;12115;47.128;15.422;2024-03-08T06:53:38;4.00;99.90
23869;DHT22;12115;47.128;15.422;2024-03-08T06:56:06;4.10;99.90
23869;DHT22;12115;47.128;15.422;2024-03-08T06:58:35;4.30;99.90
23869;DHT22;12115;47.128;15.422;2024-03-08T07:01:02;4.30;99.90
23869;DHT22;12115;47.128;15.422;2024-03-08T07:03:31;4.20;99.90
23869;DHT22;12115;47.128;15.422;2024-03-08T07:06:00;4.20;99.90
23869;DHT22;12115;47.128;15.422;2024-03-08T07:08:29;4.20;99.90
23869;DHT22;12115;47.128;15.422;2024-03-08T07:10:57;4.30;99.90
23869;DHT22;12115;47.128;15.422;2024-03-08T07:13:26;4.40;99.90
23869;DHT22;12115;47.128;15.422;2024-03-08T07:15:55;4.50;99.90
23869;DHT22;12115;47.128;15.422;2024-03-08T07:18:23;4.60;99.90
23869;DHT22;12115;47.128;15.422;2024-03-08T07:20:50;4.70;99.90
23869;DHT22;12115;47.128;15.422;2024-03-08T07:23:17;4.90;99.90
23869;DHT22;12115;47.128;15.422;2024-03-08T07:26:04;5.00;99.90
23869;DHT22;12115;47.128;15.422;2024-03-08T07:28:31;5.30;99.90
23869;DHT22;12115;47.128;15.422;2024-03-08T07:30:58;5.50;99.90
23869;DHT22;12115;47.128;15.422;2024-03-08T07:33:49;5.60;99.90
23869;DHT22;12115;47.128;15.422;2024-03-08T07:36:17;5.70;99.90
23869;DHT22;12115;47.128;15.422;2024-03-08T07:38:45;5.80;99.90
23869;DHT22;12115;47.128;15.422;2024-03-08T07:41:15;5.90;99.90
23869;DHT22;12115;47.128;15.422;2024-03-08T07:43:43;6.00;99.90
23869;DHT22;12115;47.128;15.422;2024-03-08T07:46:10;6.10;99.90
23869;DHT22;12115;47.128;15.422;2024-03-08T07:48:37;6.30;99.90
23869;DHT22;12115;47.128;15.422;2024-03-08T07:51:07;6.50;99.90
23869;DHT22;12115;47.128;15.422;2024-03-08T07:53:36;6.70;99.90
23869;DHT22;12115;47.128;15.422;2024-03-08T07:56:05;6.80;99.90
23869;DHT22;12115;47.128;15.422;2024-03-08T07:58:32;6.90;99.90
23869;DHT22;12115;47.128;15.422;2024-03-08T08:01:01;6.90;99.90
23869;DHT22;12115;47.128;15.422;2024-03-08T08:03:29;6.90;99.90
23869;DHT22;12115;47.128;15.422;2024-03-08T08:05:57;6.80;99.90
23869;DHT22;12115;47.128;15.422;2024-03-08T08:08:24;6.90;99.90
23869;DHT22;12115;47.128;15.422;2024-03-08T08:10:53;6.80;99.90
23869;DHT22;12115;47.128;15.422;2024-03-08T08:13:20;6.70;99.90
23869;DHT22;12115;47.128;15.422;2024-03-08T08:15:48;6.90;99.90
23869;DHT22;12115;47.128;15.422;2024-03-08T08:18:15;6.70;99.90
23869;DHT22;12115;47.128;15.422;2024-03-08T08:20:44;6.80;99.90
23869;DHT22;12115;47.128;15.422;2024-03-08T08:23:11;6.70;99.90
23869;DHT22;12115;47.128;15.422;2024-03-08T08:25:39;6.90;99.90
23869;DHT22;12115;47.128;15.422;2024-03-08T08:28:06;6.80;99.90
23869;DHT22;12115;47.128;15.422;2024-03-08T08:30:35;6.70;99.90
23869;DHT22;12115;47.128;15.422;2024-03-08T08:33:21;6.60;99.90
23869;DHT22;12115;47.128;15.422;2024-03-08T08:35:48;6.50;99.90
23869;DHT22;12115;47.128;15.422;2024-03-08T08:38:18;6.40;99.90
23869;DHT22;12115;47.128;15.422;2024-03-08T08:40:46;6.40;99.90
23869;DHT22;12115;47.128;15.422;2024-03-08T08:43:14;6.30;99.90
23869;DHT22;12115;47.128;15.422;2024-03-08T08:45:41;6.60;99.90
23869;DHT22;12115;47.128;15.422;2024-03-08T08:48:09;6.80;99.90
23869;DHT22;12115;47.128;15.422;2024-03-08T08:50:37;7.00;99.90
23869;DHT22;12115;47.128;15.422;2024-03-08T08:53:04;6.90;99.90
23869;DHT22;12115;47.128;15.422;2024-03-08T08:55:33;6.80;99.90
23869;DHT22;12115;47.128;15.422;2024-03-08T08:58:03;6.70;99.90
23869;DHT22;12115;47.128;15.422;2024-03-08T09:00:30;6.90;99.90
23869;DHT22;12115;47.128;15.422;2024-03-08T09:02:58;6.90;99.90
23869;DHT22;12115;47.128;15.422;2024-03-08T09:05:25;6.90;99.90
23869;DHT22;12115;47.128;15.422;2024-03-08T09:07:53;6.80;99.90
23869;DHT22;12115;47.128;15.422;2024-03-08T09:10:20;6.90;99.90
23869;DHT22;12115;47.128;15.422;2024-03-08T09:12:48;7.00;99.90
23869;DHT22;12115;47.128;15.422;2024-03-08T09:15:15;6.90;99.90
23869;DHT22;12115;47.128;15.422;2024-03-08T09:17:44;6.90;99.90
23869;DHT22;12115;47.128;15.422;2024-03-08T09:20:12;7.00;99.90
23869;DHT22;12115;47.128;15.422;2024-03-08T09:22:45;7.10;99.90
23869;DHT22;12115;47.128;15.422;2024-03-08T09:25:15;7.70;99.90
23869;DHT22;12115;47.128;15.422;2024-03-08T09:27:43;8.50;99.90
23869;DHT22;12115;47.128;15.422;2024-03-08T09:30:10;9.00;99.90
23869;DHT22;12115;47.128;15.422;2024-03-08T09:32:40;9.70;99.90
23869;DHT22;12115;47.128;15.422;2024-03-08T09:35:08;10.00;99.90
23869;DHT22;12115;47.128;15.422;2024-03-08T09:37:35;10.20;99.90
23869;DHT22;12115;47.128;15.422;2024-03-08T09:40:03;9.50;99.90
23869;DHT22;12115;47.128;15.422;2024-03-08T09:42:37;9.60;99.90
23869;DHT22;12115;47.128;15.422;2024-03-08T09:45:11;10.20;99.90
23869;DHT22;12115;47.128;15.422;2024-03-08T09:47:42;10.40;99.90
23869;DHT22;12115;47.128;15.422;2024-03-08T09:50:11;11.20;99.90
23869;DHT22;12115;47.128;15.422;2024-03-08T09:52:40;11.80;99.90
23869;DHT22;12115;47.128;15.422;2024-03-08T09:55:09;11.60;99.90
23869;DHT22;12115;47.128;15.422;2024-03-08T09:57:40;11.00;99.90
23869;DHT22;12115;47.128;15.422;2024-03-08T10:00:20;11.00;99.90
23869;DHT22;12115;47.128;15.422;2024-03-08T10:02:51;10.80;99.90
23869;DHT22;12115;47.128;15.422;2024-03-08T10:05:20;10.40;99.90
23869;DHT22;12115;47.128;15.422;2024-03-08T10:07:48;10.30;99.90
23869;DHT22;12115;47.128;15.422;2024-03-08T10:10:16;10.10;99.90
23869;DHT22;12115;47.128;15.422;2024-03-08T10:12:43;9.90;99.90
23869;DHT22;12115;47.128;15.422;2024-03-08T10:15:10;9.50;99.90
23869;DHT22;12115;47.128;15.422;2024-03-08T10:17:39;9.20;99.90
23869;DHT22;12115;47.128;15.422;2024-03-08T10:20:25;9.30;99.90
23869;DHT22;12115;47.128;15.422;2024-03-08T10:22:53;9.20;99.90
23869;DHT22;12115;47.128;15.422;2024-03-08T10:25:36;9.20;99.90
23869;DHT22;12115;47.128;15.422;2024-03-08T10:28:04;9.00;99.90
23869;DHT22;12115;47.128;15.422;2024-03-08T10:30:34;9.20;99.90
23869;DHT22;12115;47.128;15.422;2024-03-08T10:33:03;9.10;99.90
23869;DHT22;12115;47.128;15.422;2024-03-08T10:35:32;9.00;99.90
23869;DHT22;12115;47.128;15.422;2024-03-08T10:38:01;9.10;99.90
23869;DHT22;12115;47.128;15.422;2024-03-08T10:40:32;9.20;99.90
23869;DHT22;12115;47.128;15.422;2024-03-08T10:42:59;9.10;99.90
23869;DHT22;12115;47.128;15.422;2024-03-08T10:45:35;9.20;99.90
23869;DHT22;12115;47.128;15.422;2024-03-08T10:50:36;9.50;99.90
23869;DHT22;12115;47.128;15.422;2024-03-08T10:53:06;9.30;99.80
23869;DHT22;12115;47.128;15.422;2024-03-08T10:55:37;9.20;99.90
23869;DHT22;12115;47.128;15.422;2024-03-08T10:58:07;9.00;99.80
23869;DHT22;12115;47.128;15.422;2024-03-08T11:00:36;8.90;99.90
23869;DHT22;12115;47.128;15.422;2024-03-08T11:03:04;9.00;99.90
23869;DHT22;12115;47.128;15.422;2024-03-08T11:05:39;8.90;99.90
23869;DHT22;12115;47.128;15.422;2024-03-08T11:08:18;9.00;99.90
23869;DHT22;12115;47.128;15.422;2024-03-08T11:10:53;9.00;99.90
23869;DHT22;12115;47.128;15.422;2024-03-08T11:13:36;9.10;99.90
23869;DHT22;12115;47.128;15.422;2024-03-08T11:16:11;9.10;99.90
23869;DHT22;12115;47.128;15.422;2024-03-08T11:18:40;9.40;99.90
23869;DHT22;12115;47.128;15.422;2024-03-08T11:21:08;9.70;99.90
23869;DHT22;12115;47.128;15.422;2024-03-08T11:23:39;9.40;99.90
23869;DHT22;12115;47.128;15.422;2024-03-08T11:26:24;9.10;99.90
23869;DHT22;12115;47.128;15.422;2024-03-08T11:28:51;9.20;99.90
23869;DHT22;12115;47.128;15.422;2024-03-08T11:31:24;8.90;99.90
23869;DHT22;12115;47.128;15.422;2024-03-08T11:33:51;8.80;99.90
23869;DHT22;12115;47.128;15.422;2024-03-08T11:36:25;8.90;99.90
23869;DHT22;12115;47.128;15.422;2024-03-08T11:38:53;8.50;99.90
23869;DHT22;12115;47.128;15.422;2024-03-08T11:41:22;8.60;99.90
23869;DHT22;12115;47.128;15.422;2024-03-08T11:44:04;8.90;99.90
23869;DHT22;12115;47.128;15.422;2024-03-08T11:46:32;9.20;99.90
23869;DHT22;12115;47.128;15.422;2024-03-08T11:49:00;9.30;99.90
23869;DHT22;12115;47.128;15.422;2024-03-08T11:51:27;9.10;99.90
23869;DHT22;12115;47.128;15.422;2024-03-08T11:53:55;9.10;99.90
23869;DHT22;12115;47.128;15.422;2024-03-08T11:56:22;8.90;99.90
23869;DHT22;12115;47.128;15.422;2024-03-08T11:58:55;9.00;99.90
23869;DHT22;12115;47.128;15.422;2024-03-08T12:01:25;8.70;99.90
23869;DHT22;12115;47.128;15.422;2024-03-08T12:03:56;8.70;99.90
23869;DHT22;12115;47.128;15.422;2024-03-08T12:06:27;8.90;99.90
23869;DHT22;12115;47.128;15.422;2024-03-08T12:09:04;8.90;99.90
23869;DHT22;12115;47.128;15.422;2024-03-08T12:11:31;8.90;99.90
23869;DHT22;12115;47.128;15.422;2024-03-08T12:14:01;8.80;99.90
23869;DHT22;12115;47.128;15.422;2024-03-08T12:16:28;8.80;99.90
23869;DHT22;12115;47.128;15.422;2024-03-08T12:18:56;8.80;99.90
23869;DHT22;12115;47.128;15.422;2024-03-08T12:21:23;8.90;99.90
23869;DHT22;12115;47.128;15.422;2024-03-08T12:24:07;8.90;99.90
23869;DHT22;12115;47.128;15.422;2024-03-08T12:26:38;8.90;99.90
23869;DHT22;12115;47.128;15.422;2024-03-08T12:29:20;8.90;99.90
23869;DHT22;12115;47.128;15.422;2024-03-08T12:31:57;9.00;99.90
23869;DHT22;12115;47.128;15.422;2024-03-08T12:34:26;8.70;99.90
23869;DHT22;12115;47.128;15.422;2024-03-08T12:36:54;8.20;99.90
23869;DHT22;12115;47.128;15.422;2024-03-08T12:39:22;8.30;99.90
23869;DHT22;12115;47.128;15.422;2024-03-08T12:41:54;8.40;99.90
23869;DHT22;12115;47.128;15.422;2024-03-08T12:44:21;8.30;99.90
23869;DHT22;12115;47.128;15.422;2024-03-08T12:46:49;8.20;99.90
23869;DHT22;12115;47.128;15.422;2024-03-08T12:49:19;8.20;99.90
23869;DHT22;12115;47.128;15.422;2024-03-08T12:51:49;8.10;99.90
23869;DHT22;12115;47.128;15.422;2024-03-08T12:54:16;8.10;99.90
23869;DHT22;12115;47.128;15.422;2024-03-08T12:56:43;8.20;99.90
23869;DHT22;12115;47.128;15.422;2024-03-08T12:59:10;8.20;99.90
23869;DHT22;12115;47.128;15.422;2024-03-08T13:01:39;8.40;99.90
23869;DHT22;12115;47.128;15.422;2024-03-08T13:04:07;8.50;99.90
23869;DHT22;12115;47.128;15.422;2024-03-08T13:06:38;8.50;99.90
23869;DHT22;12115;47.128;15.422;2024-03-08T13:09:05;8.50;99.90
23869;DHT22;12115;47.128;15.422;2024-03-08T13:11:33;8.50;99.90
23869;DHT22;12115;47.128;15.422;2024-03-08T13:14:04;8.40;99.90
23869;DHT22;12115;47.128;15.422;2024-03-08T13:16:34;8.30;99.90
23869;DHT22;12115;47.128;15.422;2024-03-08T13:19:02;8.20;99.90
23869;DHT22;12115;47.128;15.422;2024-03-08T13:21:29;8.20;99.90
23869;DHT22;12115;47.128;15.422;2024-03-08T13:23:57;8.30;99.90
23869;DHT22;12115;47.128;15.422;2024-03-08T13:26:26;8.30;99.90
23869;DHT22;12115;47.128;15.422;2024-03-08T13:29:00;8.30;99.90
23869;DHT22;12115;47.128;15.422;2024-03-08T13:31:27;8.30;99.90
23869;DHT22;12115;47.128;15.422;2024-03-08T13:33:55;8.10;99.90
23869;DHT22;12115;47.128;15.422;2024-03-08T13:36:25;8.00;99.90
23869;DHT22;12115;47.128;15.422;2024-03-08T13:38:56;8.00;99.90
23869;DHT22;12115;47.128;15.422;2024-03-08T13:41:26;8.00;99.90
23869;DHT22;12115;47.128;15.422;2024-03-08T13:43:56;8.10;99.90
23869;DHT22;12115;47.128;15.422;2024-03-08T13:46:24;8.20;99.90
23869;DHT22;12115;47.128;15.422;2024-03-08T13:48:52;8.10;99.90
23869;DHT22;12115;47.128;15.422;2024-03-08T13:51:28;8.10;99.90
23869;DHT22;12115;47.128;15.422;2024-03-08T13:53:55;8.00;99.90
23869;DHT22;12115;47.128;15.422;2024-03-08T13:56:22;8.10;99.90
23869;DHT22;12115;47.128;15.422;2024-03-08T13:58:49;8.00;99.90
23869;DHT22;12115;47.128;15.422;2024-03-08T14:01:19;8.00;99.90
23869;DHT22;12115;47.128;15.422;2024-03-08T14:03:48;8.00;99.90
23869;DHT22;12115;47.128;15.422;2024-03-08T14:06:15;7.90;99.90
23869;DHT22;12115;47.128;15.422;2024-03-08T14:08:49;8.00;99.90
23869;DHT22;12115;47.128;15.422;2024-03-08T14:11:16;7.90;99.90
23869;DHT22;12115;47.128;15.422;2024-03-08T14:13:46;8.00;99.90
23869;DHT22;12115;47.128;15.422;2024-03-08T14:16:14;8.10;99.90
23869;DHT22;12115;47.128;15.422;2024-03-08T14:18:42;8.10;99.90
23869;DHT22;12115;47.128;15.422;2024-03-08T14:21:10;8.10;99.90
23869;DHT22;12115;47.128;15.422;2024-03-08T14:23:40;7.90;99.90
23869;DHT22;12115;47.128;15.422;2024-03-08T14:26:08;7.80;99.90
23869;DHT22;12115;47.128;15.422;2024-03-08T14:28:36;7.70;99.90
23869;DHT22;12115;47.128;15.422;2024-03-08T14:31:06;7.70;99.90
23869;DHT22;12115;47.128;15.422;2024-03-08T14:33:38;7.90;99.90
23869;DHT22;12115;47.128;15.422;2024-03-08T14:36:05;7.90;99.90
23869;DHT22;12115;47.128;15.422;2024-03-08T14:38:33;8.00;99.90
23869;DHT22;12115;47.128;15.422;2024-03-08T14:41:02;8.10;99.90
23869;DHT22;12115;47.128;15.422;2024-03-08T14:43:31;8.00;99.90
23869;DHT22;12115;47.128;15.422;2024-03-08T14:45:59;7.70;99.90
23869;DHT22;12115;47.128;15.422;2024-03-08T14:48:26;7.70;99.90
23869;DHT22;12115;47.128;15.422;2024-03-08T14:50:54;7.80;99.90
23869;DHT22;12115;47.128;15.422;2024-03-08T14:53:21;7.80;99.90
23869;DHT22;12115;47.128;15.422;2024-03-08T14:55:48;7.70;99.90
23869;DHT22;12115;47.128;15.422;2024-03-08T14:58:15;7.80;99.90
23869;DHT22;12115;47.128;15.422;2024-03-08T15:00:43;7.70;99.90
23869;DHT22;12115;47.128;15.422;2024-03-08T15:03:10;7.50;99.90
23869;DHT22;12115;47.128;15.422;2024-03-08T15:05:44;7.50;99.90
23869;DHT22;12115;47.128;15.422;2024-03-08T15:08:15;7.60;99.90
23869;DHT22;12115;47.128;15.422;2024-03-08T15:10:47;7.60;99.90
23869;DHT22;12115;47.128;15.422;2024-03-08T15:13:21;7.70;99.90
23869;DHT22;12115;47.128;15.422;2024-03-08T15:15:51;7.70;99.90
23869;DHT22;12115;47.128;15.422;2024-03-08T15:18:25;7.60;99.90
23869;DHT22;12115;47.128;15.422;2024-03-08T15:20:53;7.60;99.90
23869;DHT22;12115;47.128;15.422;2024-03-08T15:23:20;7.50;99.90
23869;DHT22;12115;47.128;15.422;2024-03-08T15:25:48;7.50;99.90
23869;DHT22;12115;47.128;15.422;2024-03-08T15:28:18;7.50;99.90
23869;DHT22;12115;47.128;15.422;2024-03-08T15:30:47;7.40;99.90
23869;DHT22;12115;47.128;15.422;2024-03-08T15:33:20;7.30;99.90
23869;DHT22;12115;47.128;15.422;2024-03-08T15:35:53;7.30;99.90
23869;DHT22;12115;47.128;15.422;2024-03-08T15:38:26;7.30;99.90
23869;DHT22;12115;47.128;15.422;2024-03-08T15:40:56;7.30;99.90
23869;DHT22;12115;47.128;15.422;2024-03-08T15:43:23;7.30;99.90